Lokpriya Gopinath Bordoloi International Airport

Airport
ICAO code: 
VEGT
Summary
ICAO Region: 
APAC
Territory: 
Location: 
Guwahati, Assam,
Coordinates: 
Aerial View: 
26° 6' 20.576" N, 91° 35' 15.5" E
Airport BS: 
Bird Strike
Airport WX: 
Cumulonimbus
Metar
Observation
VEGT 091400Z 00000KT 3000 BR FEW020 SCT100 22/20 Q1017 NOSIG
Station
Gauhati
Date/Time
2021-12-09 14:00:00
Wind direction
Wind speed
00 kts
Lowest cloud amount
few clouds
Temperature
22°C
Dew point
20°C
Humidity
88%
QNH
1017 hPa
Weather condition
n/a

Description

Lokpriya Gopinath Bordoloi International Airport, also known as Guwahati International Airport, is a joint use military civil airport located 20 km west of the city or Guwahati, in the state of Assam. It is the primary international airport of the North-Eastern States of India.

Climatology

Humid “subtropical” climate (Köppen climate classification Cwa) - characterized by hot, humid summers and cool winters.

Runways

Designator Length Width Surface Rops
2/20 2743 46 ASP Yes/Yes
Airport map: 
Aerial View: 

SKYbrary Partners:

Safety knowledge contributed by: